Latest Weather Observations for Adele Island

IDW60801

Issued at 1:33 pm WST Sunday 26 February 2017 (issued every 30 minutes, with the page automatically refreshed every 10 minutes)

About weather observations | Map of weather stations | Latest weather observations for WA | Other Formats
Station Details ID: 200735 Name: ADELE ISLAND Lat: -15.51 Lon: 123.16 Height: 4.6 m
Data from the previous 72 hours. | See also: Recent months at Adele Island
Date/Time
WST
Temp
°C
App
Temp
°C
Dew
Point
°C
Rel
Hum
%
Delta-T
°C
Wind Press
QNH
hPa
Press
MSL
hPa
Rain since
9am
mm
Dir  Spd
km/h
Gust
km/h
Spd
kts
Gust
kts
26/01:30pm 29.8 - - - - NNE 17 20 9 11 1008.0 1007.9 -
26/01:00pm 29.8 - - - - NNE 17 20 9 11 1008.2 1008.1 -
26/12:30pm 29.5 - - - - NNE 17 20 9 11 1008.5 1008.4 -
26/12:00pm 29.7 - - - - NNE 17 20 9 11 1008.7 1008.6 -
26/11:30am 29.6 - - - - NNE 17 20 9 11 1009.0 1008.9 -
26/11:00am 29.4 - - - - NNE 17 20 9 11 1009.1 1009.0 -
26/10:30am 29.4 - - - - NNE 17 20 9 11 1009.4 1009.3 -
26/10:00am 29.8 - - - - NNE 15 19 8 10 1009.6 1009.5 -
26/09:30am 29.2 - - - - NNE 11 13 6 7 1009.9 1009.8 -
26/09:00am 29.3 - - - - NNE 9 13 5 7 1009.9 1009.8 -
26/08:30am 29.2 - - - - NNE 9 11 5 6 1009.4 1009.3 -
26/08:00am 28.9 - - - - NE 9 11 5 6 1009.4 1009.3 -
26/07:30am 29.0 - - - - NE 7 9 4 5 1009.4 1009.3 -
26/07:00am 28.7 - - - - NNE 9 11 5 6 1008.9 1008.8 -
26/06:30am 28.3 - - - - N 11 11 6 6 1008.3 1008.2 -
26/06:00am 28.5 - - - - N 9 11 5 6 1008.1 1008.0 -
26/05:30am 28.1 - - - - N 13 15 7 8 1007.8 1007.7 -
26/05:00am 28.4 - - - - N 15 17 8 9 1007.7 1007.6 -
26/04:30am 28.5 - - - - N 15 17 8 9 1007.6 1007.5 -
26/04:00am 28.5 - - - - NNW 17 19 9 10 1007.6 1007.5 -
26/03:30am 28.5 - - - - N 17 20 9 11 1007.6 1007.5 -
26/03:00am 28.6 - - - - NNW 17 19 9 10 1007.7 1007.6 -
26/02:30am 28.6 - - - - NNW 15 19 8 10 1007.8 1007.7 -
26/02:00am 28.7 - - - - NNW 17 17 9 9 1007.9 1007.8 -
26/01:30am 28.7 - - - - NNW 19 20 10 11 1007.8 1007.7 -
26/01:00am 28.8 - - - - NW 19 20 10 11 1008.1 1008.0 -
26/12:30am 28.8 - - - - NW 17 20 9 11 1008.4 1008.3 -
26/12:00am 28.8 - - - - NW 13 17 7 9 1008.8 1008.7 -
 
Date/Time
WST
Temp
°C
App
Temp
°C
Dew
Point
°C
Rel
Hum
%
Delta-T
°C
Wind Press
QNH
hPa
Press
MSL
hPa
Rain since
9am
mm
Dir  Spd
km/h
Gust
km/h
Spd
kts
Gust
kts
25/11:30pm 28.6 - - - - NW 15 17 8 9 1009.3 1009.2 -
25/11:00pm 28.4 - - - - NW 15 19 8 10 1009.5 1009.4 -
25/10:30pm 28.5 - - - - NW 17 20 9 11 1009.8 1009.7 -
25/10:00pm 28.4 - - - - NNW 15 17 8 9 1010.0 1009.9 -
25/09:30pm 28.2 - - - - NW 13 15 7 8 1010.1 1010.0 -
25/09:00pm 28.0 - - - - NW 17 20 9 11 1009.9 1009.8 -
25/08:30pm 28.7 - - - - N 11 13 6 7 1009.7 1009.6 -
25/08:00pm 28.7 - - - - N 9 11 5 6 1009.6 1009.5 -
25/07:30pm 28.7 - - - - N 9 11 5 6 1009.0 1008.9 -
25/07:00pm 28.6 - - - - NNW 6 7 3 4 1008.8 1008.7 -
25/06:30pm 28.8 - - - - NNE 6 9 3 5 1008.3 1008.2 -
25/06:00pm 29.1 - - - - WNW 7 9 4 5 1008.1 1008.0 -
25/05:30pm 29.4 - - - - WSW 6 9 3 5 1008.0 1007.9 -
25/05:00pm 29.6 - - - - N 4 7 2 4 1007.7 1007.6 -
25/04:30pm 29.3 - - - - NNE 9 11 5 6 1007.2 1007.1 -
25/04:00pm 29.0 - - - - NE 13 15 7 8 1007.0 1006.9 -
25/03:30pm 29.6 - - - - E 11 15 6 8 1007.4 1007.3 -
25/03:00pm 30.0 - - - - SE 13 17 7 9 1007.8 1007.7 -
25/02:30pm 29.0 - - - - SE 17 20 9 11 1007.8 1007.7 -
25/02:00pm 29.3 - - - - SE 24 30 13 16 1008.2 1008.1 -
25/01:30pm 29.6 - - - - SSE 20 28 11 15 1008.6 1008.5 -
25/01:00pm 30.2 - - - - SSE 19 28 10 15 1008.9 1008.8 -
25/12:30pm 29.1 - - - - SSW 17 22 9 12 1008.8 1008.7 -
25/12:00pm 27.7 - - - - SSW 19 24 10 13 1008.7 1008.6 -
25/11:30am 29.0 - - - - SW 20 28 11 15 1008.9 1008.8 -
25/11:00am 26.3 - - - - SW 32 43 17 23 1009.7 1009.6 -
25/10:30am 27.4 - - - - SSW 33 44 18 24 1010.3 1010.2 -
25/10:13am 27.2 - - - - SSW 20 48 11 26 1010.7 1010.6 -
25/10:00am 30.1 - - - - NW 11 13 6 7 1010.6 1010.5 -
25/09:30am 29.4 - - - - NNE 9 11 5 6 1010.7 1010.6 -
25/09:00am 29.0 - - - - N 15 17 8 9 1010.3 1010.2 -
25/08:30am 28.3 - - - - N 13 17 7 9 1010.4 1010.3 -
25/08:00am 28.0 - - - - N 15 17 8 9 1009.8 1009.7 -
25/07:30am 27.6 - - - - NNW 19 20 10 11 1009.6 1009.5 -
25/07:00am 27.6 - - - - NW 24 28 13 15 1009.1 1009.0 -
25/06:30am 27.5 - - - - NW 20 24 11 13 1008.9 1008.8 -
25/06:00am 27.0 - - - - NW 19 24 10 13 1009.3 1009.2 -
25/05:30am 26.9 - - - - NNW 22 26 12 14 1009.3 1009.2 -
25/05:00am 26.8 - - - - NNW 19 22 10 12 1009.2 1009.1 -
25/04:30am 26.3 - - - - NNW 19 22 10 12 1009.0 1008.9 -
25/04:00am 26.6 - - - - NNW 15 19 8 10 1009.0 1008.9 -
25/03:30am 26.3 - - - - NNW 26 32 14 17 1009.0 1008.9 -
25/03:00am 27.0 - - - - NNW 33 39 18 21 1008.9 1008.8 -
25/02:30am 27.2 - - - - NNW 24 30 13 16 1009.0 1008.9 -
25/02:00am 27.1 - - - - NW 28 35 15 19 1008.9 1008.8 -
25/01:30am 27.5 - - - - NNW 26 32 14 17 1009.4 1009.3 -
25/01:00am 27.2 - - - - NW 32 39 17 21 1009.4 1009.3 -
25/12:30am 28.9 - - - - NW 22 30 12 16 1009.4 1009.3 -
25/12:00am 28.6 - - - - NW 20 22 11 12 1009.4 1009.3 -
 
Date/Time
WST
Temp
°C
App
Temp
°C
Dew
Point
°C
Rel
Hum
%
Delta-T
°C
Wind Press
QNH
hPa
Press
MSL
hPa
Rain since
9am
mm
Dir  Spd
km/h
Gust
km/h
Spd
kts
Gust
kts
24/11:30pm 28.6 - - - - WNW 22 28 12 15 1009.0 1008.9 -
24/11:00pm 27.9 - - - - W 24 32 13 17 1009.7 1009.6 -
24/10:30pm 28.3 - - - - WSW 28 37 15 20 1009.4 1009.3 -
24/10:00pm 28.3 - - - - SSW 26 44 14 24 1009.6 1009.5 -
24/09:54pm 26.4 - - - - SE 20 44 11 24 1010.1 1010.0 -
24/09:30pm 29.2 - - - - WNW 15 19 8 10 1009.8 1009.7 -
24/09:00pm 29.4 - - - - WNW 15 20 8 11 1009.4 1009.3 -
24/08:30pm 29.1 - - - - WSW 15 19 8 10 1009.1 1009.0 -
24/08:00pm 29.4 - - - - W 13 15 7 8 1009.1 1009.0 -
24/07:30pm 29.7 - - - - SSW 13 15 7 8 1009.0 1008.9 -
24/07:00pm 29.1 - - - - SSW 19 20 10 11 1008.5 1008.4 -
24/06:30pm 29.3 - - - - W 13 17 7 9 1008.2 1008.1 -
24/06:00pm 29.9 - - - - SW 13 20 7 11 1007.9 1007.8 -
24/05:30pm 30.7 - - - - N 6 11 3 6 1007.7 1007.6 -
24/05:00pm 29.4 - - - - ENE 32 44 17 24 1008.7 1008.6 -
24/04:45pm 29.5 - - - - ESE 33 44 18 24 1008.9 1008.8 -
24/04:38pm 29.6 - - - - SSE 28 44 15 24 1009.0 1008.9 -
24/04:30pm 30.0 - - - - S 20 28 11 15 1009.0 1008.9 -
24/04:00pm 30.4 - - - - SSW 20 28 11 15 1008.6 1008.5 -
24/03:30pm 30.1 - - - - SSW 22 28 12 15 1008.1 1008.0 -
24/03:00pm 30.5 - - - - SSW 24 30 13 16 1008.2 1008.1 -
24/02:30pm 30.0 - - - - SW 26 32 14 17 1008.1 1008.0 -
24/02:00pm 30.6 - - - - WSW 28 32 15 17 1008.0 1007.9 -
24/01:30pm 30.7 - - - - WSW 28 33 15 18 1008.5 1008.4 -
24/01:00pm 30.2 - - - - SW 28 33 15 18 1009.1 1009.0 -
24/12:30pm 30.6 - - - - SSW 28 33 15 18 1009.5 1009.4 -
24/12:00pm 30.7 - - - - SSW 28 35 15 19 1010.0 1009.9 -
24/11:30am 30.9 - - - - SSW 26 32 14 17 1010.4 1010.3 -
24/11:00am 30.5 - - - - SSW 26 32 14 17 1010.5 1010.4 -
24/10:30am 30.8 - - - - SW 28 33 15 18 1010.7 1010.6 -
24/10:00am 30.4 - - - - SW 19 24 10 13 1010.9 1010.8 -
24/09:30am 30.6 - - - - WSW 17 20 9 11 1011.2 1011.1 -
24/09:00am 29.9 - - - - WSW 13 15 7 8 1011.4 1011.3 -
24/08:30am 30.2 - - - - W 13 15 7 8 1011.7 1011.6 -
24/08:00am 30.1 - - - - NNW 11 11 6 6 1011.6 1011.5 -
24/07:30am 29.4 - - - - N 9 11 5 6 1011.6 1011.5 -
24/07:00am 28.9 - - - - WNW 7 9 4 5 1011.4 1011.3 -
24/06:30am 28.6 - - - - WNW 9 9 5 5 1011.3 1011.2 -
24/06:00am 28.2 - - - - NW 13 15 7 8 1011.3 1011.2 -
24/05:30am 28.4 - - - - WNW 11 13 6 7 1011.5 1011.4 -
24/05:00am 27.7 - - - - WNW 17 19 9 10 1011.1 1011.0 -
24/04:30am 27.3 - - - - WNW 19 22 10 12 1011.2 1011.1 -
24/04:00am 27.0 - - - - NW 28 33 15 18 1010.8 1010.7 -
24/03:30am 28.1 - - - - NW 26 32 14 17 1011.0 1010.9 -
24/03:00am 28.4 - - - - NNW 32 35 17 19 1010.6 1010.5 -
24/02:30am 28.0 - - - - WNW 19 22 10 12 1009.8 1009.7 -
24/02:00am 27.5 - - - - WNW 13 28 7 15 1010.0 1009.9 -
24/01:38am 28.8 - - - - NNW 39 63 21 34 1009.9 1009.8 -
24/01:36am 29.2 - - - - N 37 63 20 34 1010.3 1010.2 -
24/01:31am 27.0 - - - - NNW 19 46 10 25 1010.8 1010.7 -
24/01:30am 28.6 - - - - NW 15 46 8 25 1010.9 1010.8 -
24/01:00am 29.3 - - - - SW 26 32 14 17 1010.1 1010.0 -
24/12:30am 29.1 - - - - SW 24 30 13 16 1010.5 1010.4 -
24/12:00am 29.1 - - - - SW 24 30 13 16 1010.9 1010.8 -
 
Date/Time
WST
Temp
°C
App
Temp
°C
Dew
Point
°C
Rel
Hum
%
Delta-T
°C
Wind Press
QNH
hPa
Press
MSL
hPa
Rain since
9am
mm
Dir  Spd
km/h
Gust
km/h
Spd
kts
Gust
kts
23/11:30pm 29.2 - - - - WSW 22 28 12 15 1011.0 1010.9 -
23/11:00pm 29.2 - - - - SW 22 30 12 16 1011.3 1011.2 -
23/10:30pm 29.2 - - - - WSW 22 28 12 15 1011.3 1011.2 -
23/10:00pm 29.2 - - - - SW 22 28 12 15 1011.3 1011.2 -
23/09:30pm 29.1 - - - - SW 22 32 12 17 1010.9 1010.8 -
23/09:00pm 29.1 - - - - SW 24 32 13 17 1010.7 1010.6 -
23/08:30pm 29.2 - - - - SW 26 33 14 18 1010.5 1010.4 -
23/08:00pm 29.2 - - - - SW 24 32 13 17 1010.1 1010.0 -
23/07:30pm 29.3 - - - - SW 22 28 12 15 1009.8 1009.7 -
23/07:00pm 29.2 - - - - SSW 22 30 12 16 1009.7 1009.6 -
23/06:30pm 29.4 - - - - SW 24 28 13 15 1009.5 1009.4 -
23/06:00pm 29.5 - - - - SW 26 32 14 17 1009.3 1009.2 -
23/05:30pm 29.8 - - - - SW 24 30 13 16 1008.9 1008.8 -
23/05:00pm 29.7 - - - - WSW 26 32 14 17 1008.8 1008.7 -
23/04:30pm 30.0 - - - - WSW 24 32 13 17 1008.8 1008.7 -
23/04:00pm 30.2 - - - - SW 26 32 14 17 1008.9 1008.8 -
23/03:30pm 31.0 - - - - WSW 24 30 13 16 1008.9 1008.8 -
23/03:00pm 30.6 - - - - WSW 22 30 12 16 1009.1 1009.0 -
23/02:30pm 30.5 - - - - SW 22 28 12 15 1009.2 1009.1 -
23/02:00pm 30.5 - - - - SW 22 28 12 15 1009.3 1009.2 -

Other Formats:

Comma delimited format used in spreadsheet applications
http://www.bom.gov.au/fwo/IDW60801/IDW60801.94210.axf

JavaScript Object Notation format (JSON) in row-major order
http://www.bom.gov.au/fwo/IDW60801/IDW60801.94210.json